SERO

Coronel Artilleria Victor Larrea Airport

Airport
ICAO code
SERO
Summary
ICAO Region
CARSAM
ICAO Territory
Location

, El Oro

Serving
Santa Rosa
Elevation
170 ft
Coordinates
3° 26' 7" S , 79° 58' 40" W
Metar
Observation
SERO 062100Z 00000KT 9999 FEW016 SCT023 25/20 Q1010
Station
Santa Rosa Regional Airport
Date/Time
2022-10-06 21:00:00
Wind direction
Wind speed
00 kts
Lowest cloud amount
few clouds
Temperature
25°C
Dew point
20°C
Humidity
73%
QNH
1010 hPa
Weather condition
n/a

Runways

Designator Length Width Surface Rops
9/27 992 18 ASP No/No

Airport map

Aerial View

SKYbrary Partners:

Safety knowledge contributed by: